createdAt,value
2022-11-02T00:04:41.370Z,9.67
2022-11-02T00:09:42.825Z,9.82
2022-11-02T00:14:44.302Z,9.89
2022-11-02T00:19:45.760Z,9.81
2022-11-02T00:24:47.237Z,9.90
2022-11-02T00:29:48.866Z,9.81
2022-11-02T00:34:50.257Z,9.92
2022-11-02T00:39:51.690Z,9.75
2022-11-02T00:44:53.189Z,9.66
2022-11-02T00:49:54.631Z,9.51
2022-11-02T00:54:56.214Z,9.44
2022-11-02T00:59:57.738Z,9.33
2022-11-02T01:04:59.131Z,9.58
2022-11-02T01:10:00.546Z,9.71
2022-11-02T01:15:02.109Z,9.93
2022-11-02T01:20:04.704Z,9.79
2022-11-02T01:25:06.458Z,9.88
2022-11-02T01:30:08.356Z,9.99
2022-11-02T01:35:09.827Z,9.98
2022-11-02T01:40:11.594Z,10.06
2022-11-02T01:45:13.888Z,10.06
2022-11-02T01:50:21.616Z,10.14
2022-11-02T01:55:27.758Z,10.34
2022-11-02T02:00:29.220Z,10.41
2022-11-02T02:05:32.868Z,10.64
2022-11-02T02:10:35.746Z,10.63
2022-11-02T02:16:03.155Z,10.80
2022-11-02T02:21:25.114Z,11.04
2022-11-02T02:26:50.586Z,10.93
2022-11-02T02:32:05.730Z,11.11
2022-11-02T02:37:14.007Z,11.14
2022-11-02T02:42:23.874Z,11.23
2022-11-02T02:47:30.178Z,11.17
2022-11-02T02:52:35.532Z,11.03
2022-11-02T02:57:37.694Z,11.05
2022-11-02T03:02:39.285Z,11.22
2022-11-02T03:07:48.325Z,11.28
2022-11-02T03:13:11.331Z,11.23
2022-11-02T03:18:18.525Z,11.40
2022-11-02T03:23:30.403Z,11.22
2022-11-02T03:28:50.386Z,11.23
2022-11-02T03:34:04.124Z,11.10
2022-11-02T03:39:11.468Z,11.08
2022-11-02T03:44:20.920Z,11.07
2022-11-02T03:49:23.823Z,11.13
2022-11-02T03:54:51.915Z,11.24
2022-11-02T03:59:53.384Z,10.98
2022-11-02T04:04:54.776Z,11.30
2022-11-02T04:09:56.212Z,11.17
2022-11-02T04:14:57.683Z,11.20
2022-11-02T04:19:59.083Z,11.36
2022-11-02T04:25:00.689Z,11.14
2022-11-02T04:30:02.320Z,11.13
2022-11-02T04:35:04.716Z,11.15
2022-11-02T04:40:06.994Z,11.21
2022-11-02T04:45:09.163Z,11.29
2022-11-02T04:50:11.280Z,11.21
2022-11-02T04:55:12.731Z,11.05
2022-11-02T05:00:14.913Z,11.07
2022-11-02T05:05:17.590Z,11.04
2022-11-02T05:10:19.037Z,11.12
2022-11-02T05:15:20.617Z,10.98
2022-11-02T05:20:22.323Z,10.97
2022-11-02T05:25:23.850Z,11.01
2022-11-02T05:30:25.330Z,10.92
2022-11-02T05:35:26.803Z,11.01
2022-11-02T05:40:28.424Z,11.05
2022-11-02T05:45:30.290Z,10.94
2022-11-02T05:50:31.782Z,10.84
2022-11-02T05:55:33.350Z,11.05
2022-11-02T06:00:34.836Z,10.88
2022-11-02T06:05:56.585Z,11.01
2022-11-02T06:10:58.153Z,11.03
2022-11-02T06:16:01.032Z,10.89
2022-11-02T06:21:03.365Z,10.86
2022-11-02T06:26:05.189Z,10.90
2022-11-02T06:31:06.794Z,10.94
2022-11-02T06:36:08.765Z,11.01
2022-11-02T06:41:10.162Z,11.02
2022-11-02T06:46:11.808Z,10.85
2022-11-02T06:51:13.397Z,10.94
2022-11-02T06:56:14.953Z,10.99
2022-11-02T07:01:16.677Z,11.07
2022-11-02T07:06:18.316Z,11.26
2022-11-02T07:11:19.860Z,11.37
2022-11-02T07:16:21.335Z,11.52
2022-11-02T07:21:22.746Z,11.34
2022-11-02T07:26:24.281Z,11.33
2022-11-02T07:31:25.752Z,11.51
2022-11-02T07:36:27.173Z,11.69
2022-11-02T07:41:28.672Z,11.66
2022-11-02T07:46:30.168Z,11.88
2022-11-02T07:51:31.680Z,11.98
2022-11-02T07:56:33.133Z,11.66
2022-11-02T08:01:34.571Z,12.00
2022-11-02T08:06:36.050Z,12.19
2022-11-02T08:11:37.493Z,12.41
2022-11-02T08:16:38.926Z,12.66
2022-11-02T08:21:40.409Z,12.90
2022-11-02T08:26:44.157Z,13.15
2022-11-02T08:31:47.964Z,13.25
2022-11-02T08:36:49.426Z,13.46
2022-11-02T08:41:51.111Z,13.60
2022-11-02T08:51:58.948Z,13.89
2022-11-02T08:57:00.563Z,13.89
2022-11-02T09:02:02.243Z,13.99
2022-11-02T09:07:03.728Z,14.06
2022-11-02T09:12:05.479Z,14.22
2022-11-02T09:17:07.005Z,14.27
2022-11-02T09:22:08.528Z,14.11
2022-11-02T09:27:09.964Z,14.04
2022-11-02T09:32:11.413Z,14.06
2022-11-02T09:37:12.898Z,14.05
2022-11-02T09:42:34.411Z,14.06
2022-11-02T09:53:10.505Z,14.13
2022-11-02T09:58:19.637Z,14.18
2022-11-02T10:03:35.365Z,14.11
2022-11-02T10:08:47.532Z,14.17
2022-11-02T10:13:56.805Z,14.14
2022-11-02T10:18:58.597Z,14.18
2022-11-02T10:24:09.576Z,14.20
2022-11-02T10:29:22.114Z,14.41
2022-11-02T10:34:28.058Z,14.41
2022-11-02T12:50:52.082Z,14.47
2022-11-02T12:55:59.089Z,14.43
2022-11-02T13:01:13.999Z,14.27
2022-11-02T13:06:22.062Z,14.26
2022-11-02T13:11:39.602Z,14.35
2022-11-02T13:16:48.723Z,14.30
2022-11-02T13:21:56.221Z,14.20
2022-11-02T13:27:14.167Z,14.18
2022-11-02T13:32:31.042Z,14.18
2022-11-02T13:37:40.942Z,14.12
2022-11-02T13:43:11.307Z,14.17
2022-11-02T13:48:46.741Z,14.14
2022-11-02T13:53:55.898Z,13.93
2022-11-02T13:59:02.002Z,14.10
2022-11-02T14:04:12.925Z,14.05
2022-11-02T14:09:34.891Z,13.96
2022-11-02T14:14:36.404Z,13.85
2022-11-02T14:19:40.693Z,13.76
2022-11-02T14:24:42.103Z,13.68
2022-11-02T14:29:46.496Z,13.71
2022-11-02T14:34:57.239Z,13.49
2022-11-02T14:40:19.813Z,13.44
2022-11-02T14:45:26.712Z,13.35
2022-11-02T14:50:28.714Z,13.36
2022-11-02T14:55:38.637Z,13.25
2022-11-02T15:00:50.772Z,13.21
2022-11-02T15:06:03.241Z,13.16
2022-11-02T15:11:42.982Z,13.13
2022-11-02T15:16:44.418Z,13.04
2022-11-02T15:21:45.971Z,13.01
2022-11-02T15:26:59.095Z,12.86
2022-11-02T15:32:02.091Z,12.74
2022-11-02T15:37:04.607Z,12.68
2022-11-02T15:42:32.426Z,12.56
2022-11-02T15:47:36.933Z,12.40
2022-11-02T15:53:09.067Z,12.36
2022-11-02T15:58:30.069Z,12.16
2022-11-02T16:03:32.481Z,12.01
2022-11-02T16:08:35.928Z,11.95
2022-11-02T16:13:55.718Z,11.83
2022-11-02T16:18:58.897Z,11.71
2022-11-02T16:24:00.372Z,11.52
2022-11-02T16:29:08.537Z,11.46
2022-11-02T16:34:21.719Z,11.36
2022-11-02T16:39:31.468Z,11.34
2022-11-02T16:44:34.017Z,11.13
2022-11-02T16:49:55.430Z,11.03
2022-11-02T16:54:56.956Z,11.01
2022-11-02T17:00:03.121Z,11.04
2022-11-02T17:05:07.138Z,10.82
2022-11-02T17:10:18.329Z,10.87
2022-11-02T17:15:25.514Z,10.64
2022-11-02T17:20:27.009Z,10.56
2022-11-02T17:25:33.626Z,10.52
2022-11-02T17:30:35.036Z,10.27
2022-11-02T17:35:36.769Z,10.40
2022-11-02T17:40:38.454Z,10.24
2022-11-02T17:45:39.951Z,10.32
2022-11-02T17:50:41.561Z,9.96
2022-11-02T17:55:42.985Z,9.94
2022-11-02T18:00:44.689Z,9.78
2022-11-02T18:05:50.059Z,9.78
2022-11-02T18:10:53.105Z,9.63
2022-11-02T18:15:54.563Z,9.60
2022-11-02T18:20:56.507Z,9.54
2022-11-02T18:25:59.371Z,9.57
2022-11-02T18:31:01.027Z,9.32
2022-11-02T18:36:07.314Z,9.47
2022-11-02T18:41:10.410Z,9.17
2022-11-02T18:46:11.815Z,9.19
2022-11-02T18:51:13.286Z,9.24
2022-11-02T18:56:14.755Z,9.19
2022-11-02T19:01:16.919Z,8.92
2022-11-02T19:06:19.435Z,8.75
2022-11-02T19:11:21.606Z,8.65
2022-11-02T19:16:22.994Z,8.92
2022-11-02T19:21:24.480Z,8.78
2022-11-02T19:26:26.024Z,8.72
2022-11-02T19:31:27.437Z,8.60
2022-11-02T19:36:29.816Z,8.70
2022-11-02T19:41:31.561Z,8.49
2022-11-02T19:46:34.199Z,8.33
2022-11-02T19:51:35.718Z,8.57
2022-11-02T19:56:37.580Z,8.36
2022-11-02T20:01:41.029Z,8.37
2022-11-02T20:06:43.630Z,8.10
2022-11-02T20:11:46.564Z,8.34
2022-11-02T20:16:58.823Z,8.21
2022-11-02T20:22:05.940Z,8.20
2022-11-02T20:27:07.346Z,7.94
2022-11-02T20:32:08.928Z,8.33
2022-11-02T20:37:10.343Z,7.86
2022-11-02T20:42:11.792Z,7.85
2022-11-02T20:47:13.172Z,7.99
2022-11-02T20:52:14.622Z,7.82
2022-11-02T20:57:16.085Z,7.78
2022-11-02T21:02:17.628Z,7.74
2022-11-02T21:07:19.159Z,7.79
2022-11-02T21:12:20.578Z,7.86
2022-11-02T21:17:22.093Z,7.77
2022-11-02T21:22:23.522Z,7.66
2022-11-02T21:27:24.998Z,7.74
2022-11-02T21:32:26.433Z,7.52
2022-11-02T21:37:27.836Z,7.66
2022-11-02T21:42:29.368Z,7.45
2022-11-02T21:47:30.854Z,7.66
2022-11-02T21:52:35.891Z,7.62
2022-11-02T21:57:37.870Z,7.50
2022-11-02T22:02:39.403Z,7.50
2022-11-02T22:07:40.814Z,7.33
2022-11-02T22:12:42.235Z,7.66
2022-11-02T22:17:49.509Z,7.37
2022-11-02T22:22:51.574Z,7.27
2022-11-02T22:27:53.033Z,7.14
2022-11-02T22:32:54.546Z,6.98
2022-11-02T22:37:55.926Z,7.27
2022-11-02T22:42:57.338Z,7.43
2022-11-02T22:47:58.735Z,7.32
2022-11-02T22:53:00.152Z,7.06
2022-11-02T22:58:01.572Z,7.07
2022-11-02T23:03:03.301Z,7.37
2022-11-02T23:08:05.064Z,7.77
2022-11-02T23:13:06.919Z,7.27
2022-11-02T23:18:08.532Z,7.53
2022-11-02T23:23:09.932Z,7.24
2022-11-02T23:28:11.487Z,7.30
2022-11-02T23:33:14.291Z,7.27
2022-11-02T23:38:15.820Z,7.30
2022-11-02T23:43:17.180Z,7.28
2022-11-02T23:48:18.586Z,7.50
2022-11-02T23:53:23.623Z,7.40
2022-11-02T23:58:25.075Z,7.30
